sensor_id;sensor_type;location;lat;lon;timestamp;P1;durP1;ratioP1;P2;durP2;ratioP2
67140;SDS011;54058;52.010;5.546;2023-08-21T00:00:44;3.95;;;1.40;;
67140;SDS011;54058;52.010;5.546;2023-08-21T00:03:09;5.77;;;1.70;;
67140;SDS011;54058;52.010;5.546;2023-08-21T00:05:35;2.93;;;1.20;;
67140;SDS011;54058;52.010;5.546;2023-08-21T00:08:01;3.70;;;1.80;;
67140;SDS011;54058;52.010;5.546;2023-08-21T00:10:26;5.10;;;1.47;;
67140;SDS011;54058;52.010;5.546;2023-08-21T00:12:52;3.33;;;1.33;;
67140;SDS011;54058;52.010;5.546;2023-08-21T00:15:18;5.83;;;1.57;;
67140;SDS011;54058;52.010;5.546;2023-08-21T00:17:44;3.60;;;1.40;;
67140;SDS011;54058;52.010;5.546;2023-08-21T00:20:10;2.47;;;1.33;;
67140;SDS011;54058;52.010;5.546;2023-08-21T00:22:36;2.50;;;1.20;;
67140;SDS011;54058;52.010;5.546;2023-08-21T00:25:02;2.80;;;1.20;;
67140;SDS011;54058;52.010;5.546;2023-08-21T00:27:28;5.07;;;1.50;;
67140;SDS011;54058;52.010;5.546;2023-08-21T00:29:53;5.77;;;1.43;;
67140;SDS011;54058;52.010;5.546;2023-08-21T00:32:19;4.93;;;1.83;;
67140;SDS011;54058;52.010;5.546;2023-08-21T00:34:44;4.00;;;1.60;;
67140;SDS011;54058;52.010;5.546;2023-08-21T00:37:10;4.10;;;1.60;;
67140;SDS011;54058;52.010;5.546;2023-08-21T00:39:36;6.10;;;1.60;;
67140;SDS011;54058;52.010;5.546;2023-08-21T00:42:02;4.30;;;1.40;;
67140;SDS011;54058;52.010;5.546;2023-08-21T00:44:27;3.67;;;1.27;;
67140;SDS011;54058;52.010;5.546;2023-08-21T00:46:53;5.90;;;1.80;;
67140;SDS011;54058;52.010;5.546;2023-08-21T00:49:19;4.77;;;1.47;;
67140;SDS011;54058;52.010;5.546;2023-08-21T00:51:46;4.43;;;1.60;;
67140;SDS011;54058;52.010;5.546;2023-08-21T00:54:13;5.93;;;1.48;;
67140;SDS011;54058;52.010;5.546;2023-08-21T00:56:38;7.47;;;1.80;;
67140;SDS011;54058;52.010;5.546;2023-08-21T00:59:04;2.17;;;1.17;;
67140;SDS011;54058;52.010;5.546;2023-08-21T01:01:30;4.00;;;1.50;;
67140;SDS011;54058;52.010;5.546;2023-08-21T01:03:56;4.90;;;1.48;;
67140;SDS011;54058;52.010;5.546;2023-08-21T01:06:22;6.63;;;1.70;;
67140;SDS011;54058;52.010;5.546;2023-08-21T01:08:57;3.03;;;1.27;;
67140;SDS011;54058;52.010;5.546;2023-08-21T01:11:33;3.30;;;1.30;;
67140;SDS011;54058;52.010;5.546;2023-08-21T01:14:25;3.55;;;1.10;;
67140;SDS011;54058;52.010;5.546;2023-08-21T01:16:56;2.33;;;1.50;;
67140;SDS011;54058;52.010;5.546;2023-08-21T01:19:41;4.43;;;1.73;;
67140;SDS011;54058;52.010;5.546;2023-08-21T01:22:08;4.28;;;1.33;;
67140;SDS011;54058;52.010;5.546;2023-08-21T01:24:34;7.23;;;1.30;;
67140;SDS011;54058;52.010;5.546;2023-08-21T01:27:00;6.50;;;1.50;;
67140;SDS011;54058;52.010;5.546;2023-08-21T01:29:26;4.40;;;1.30;;
67140;SDS011;54058;52.010;5.546;2023-08-21T01:32:05;5.25;;;1.92;;
67140;SDS011;54058;52.010;5.546;2023-08-21T01:34:32;7.53;;;1.50;;
67140;SDS011;54058;52.010;5.546;2023-08-21T01:36:59;3.83;;;1.45;;
67140;SDS011;54058;52.010;5.546;2023-08-21T01:39:26;2.88;;;1.10;;
67140;SDS011;54058;52.010;5.546;2023-08-21T01:41:52;6.68;;;1.58;;
67140;SDS011;54058;52.010;5.546;2023-08-21T01:44:18;2.50;;;1.33;;
67140;SDS011;54058;52.010;5.546;2023-08-21T01:46:43;2.77;;;1.27;;
67140;SDS011;54058;52.010;5.546;2023-08-21T01:49:09;3.87;;;1.23;;
67140;SDS011;54058;52.010;5.546;2023-08-21T01:51:35;6.30;;;1.75;;
67140;SDS011;54058;52.010;5.546;2023-08-21T01:54:00;4.82;;;1.67;;
67140;SDS011;54058;52.010;5.546;2023-08-21T01:56:26;3.53;;;1.10;;
67140;SDS011;54058;52.010;5.546;2023-08-21T01:58:51;3.08;;;1.40;;
67140;SDS011;54058;52.010;5.546;2023-08-21T02:01:17;3.13;;;1.50;;
67140;SDS011;54058;52.010;5.546;2023-08-21T02:03:43;3.88;;;1.20;;
67140;SDS011;54058;52.010;5.546;2023-08-21T02:06:10;7.40;;;1.42;;
67140;SDS011;54058;52.010;5.546;2023-08-21T02:08:35;7.38;;;1.58;;
67140;SDS011;54058;52.010;5.546;2023-08-21T02:11:01;7.73;;;1.33;;
67140;SDS011;54058;52.010;5.546;2023-08-21T02:13:27;4.33;;;1.43;;
67140;SDS011;54058;52.010;5.546;2023-08-21T02:15:52;3.93;;;1.53;;
67140;SDS011;54058;52.010;5.546;2023-08-21T02:18:18;5.63;;;1.67;;
67140;SDS011;54058;52.010;5.546;2023-08-21T02:20:43;4.10;;;1.30;;
67140;SDS011;54058;52.010;5.546;2023-08-21T02:23:09;3.97;;;1.20;;
67140;SDS011;54058;52.010;5.546;2023-08-21T02:25:35;3.43;;;1.30;;
67140;SDS011;54058;52.010;5.546;2023-08-21T02:28:00;2.73;;;1.00;;
67140;SDS011;54058;52.010;5.546;2023-08-21T02:30:27;3.30;;;1.10;;
67140;SDS011;54058;52.010;5.546;2023-08-21T02:32:53;4.10;;;1.20;;
67140;SDS011;54058;52.010;5.546;2023-08-21T02:35:19;2.33;;;0.83;;
67140;SDS011;54058;52.010;5.546;2023-08-21T02:37:45;4.95;;;1.20;;
67140;SDS011;54058;52.010;5.546;2023-08-21T02:40:11;2.58;;;1.23;;
67140;SDS011;54058;52.010;5.546;2023-08-21T02:42:37;4.60;;;1.30;;
67140;SDS011;54058;52.010;5.546;2023-08-21T02:45:02;1.77;;;1.00;;
67140;SDS011;54058;52.010;5.546;2023-08-21T02:47:34;5.03;;;1.17;;
67140;SDS011;54058;52.010;5.546;2023-08-21T02:50:01;7.25;;;1.30;;
67140;SDS011;54058;52.010;5.546;2023-08-21T02:52:28;3.63;;;1.33;;
67140;SDS011;54058;52.010;5.546;2023-08-21T02:54:54;2.90;;;1.23;;
67140;SDS011;54058;52.010;5.546;2023-08-21T02:57:20;2.85;;;1.15;;
67140;SDS011;54058;52.010;5.546;2023-08-21T02:59:46;4.00;;;1.30;;
67140;SDS011;54058;52.010;5.546;2023-08-21T03:02:12;4.13;;;1.50;;
67140;SDS011;54058;52.010;5.546;2023-08-21T03:04:37;6.20;;;1.33;;
67140;SDS011;54058;52.010;5.546;2023-08-21T03:07:03;4.32;;;1.10;;
67140;SDS011;54058;52.010;5.546;2023-08-21T03:09:28;2.25;;;1.20;;
67140;SDS011;54058;52.010;5.546;2023-08-21T03:11:54;3.23;;;1.30;;
67140;SDS011;54058;52.010;5.546;2023-08-21T03:14:20;2.50;;;1.20;;
67140;SDS011;54058;52.010;5.546;2023-08-21T03:16:45;4.23;;;1.10;;
67140;SDS011;54058;52.010;5.546;2023-08-21T03:19:11;3.40;;;1.30;;
67140;SDS011;54058;52.010;5.546;2023-08-21T03:21:36;1.97;;;0.97;;
67140;SDS011;54058;52.010;5.546;2023-08-21T03:24:02;5.20;;;1.40;;
67140;SDS011;54058;52.010;5.546;2023-08-21T03:26:28;3.63;;;1.23;;
67140;SDS011;54058;52.010;5.546;2023-08-21T03:28:53;10.10;;;1.42;;
67140;SDS011;54058;52.010;5.546;2023-08-21T03:31:19;3.87;;;1.53;;
67140;SDS011;54058;52.010;5.546;2023-08-21T03:33:45;6.72;;;1.73;;
67140;SDS011;54058;52.010;5.546;2023-08-21T03:36:13;5.18;;;1.40;;
67140;SDS011;54058;52.010;5.546;2023-08-21T03:38:39;6.07;;;1.33;;
67140;SDS011;54058;52.010;5.546;2023-08-21T03:41:04;3.80;;;1.60;;
67140;SDS011;54058;52.010;5.546;2023-08-21T03:43:30;3.90;;;1.00;;
67140;SDS011;54058;52.010;5.546;2023-08-21T03:45:57;4.70;;;1.17;;
67140;SDS011;54058;52.010;5.546;2023-08-21T03:48:22;2.40;;;1.33;;
67140;SDS011;54058;52.010;5.546;2023-08-21T03:50:49;4.47;;;1.47;;
67140;SDS011;54058;52.010;5.546;2023-08-21T03:53:15;2.20;;;1.20;;
67140;SDS011;54058;52.010;5.546;2023-08-21T03:55:40;4.93;;;1.40;;
67140;SDS011;54058;52.010;5.546;2023-08-21T03:58:06;3.10;;;1.17;;
67140;SDS011;54058;52.010;5.546;2023-08-21T04:00:31;5.45;;;1.33;;
67140;SDS011;54058;52.010;5.546;2023-08-21T04:02:57;4.68;;;1.20;;
67140;SDS011;54058;52.010;5.546;2023-08-21T04:05:23;1.25;;;0.73;;
67140;SDS011;54058;52.010;5.546;2023-08-21T04:07:49;4.85;;;1.42;;
67140;SDS011;54058;52.010;5.546;2023-08-21T04:10:15;2.85;;;1.00;;
67140;SDS011;54058;52.010;5.546;2023-08-21T04:12:41;4.10;;;1.30;;
67140;SDS011;54058;52.010;5.546;2023-08-21T04:15:07;5.15;;;1.50;;
67140;SDS011;54058;52.010;5.546;2023-08-21T04:17:33;2.58;;;1.30;;
67140;SDS011;54058;52.010;5.546;2023-08-21T04:19:59;2.95;;;1.35;;
67140;SDS011;54058;52.010;5.546;2023-08-21T04:22:25;1.95;;;1.10;;
67140;SDS011;54058;52.010;5.546;2023-08-21T04:24:50;3.25;;;1.40;;
67140;SDS011;54058;52.010;5.546;2023-08-21T04:27:16;7.53;;;2.10;;
67140;SDS011;54058;52.010;5.546;2023-08-21T04:29:42;3.10;;;1.37;;
67140;SDS011;54058;52.010;5.546;2023-08-21T04:32:08;3.45;;;1.27;;
67140;SDS011;54058;52.010;5.546;2023-08-21T04:34:33;5.00;;;1.50;;
67140;SDS011;54058;52.010;5.546;2023-08-21T04:36:59;4.47;;;1.33;;
67140;SDS011;54058;52.010;5.546;2023-08-21T04:39:25;3.15;;;1.33;;
67140;SDS011;54058;52.010;5.546;2023-08-21T04:41:51;3.58;;;1.63;;
67140;SDS011;54058;52.010;5.546;2023-08-21T04:44:17;3.75;;;1.40;;
67140;SDS011;54058;52.010;5.546;2023-08-21T04:46:43;9.10;;;1.90;;
67140;SDS011;54058;52.010;5.546;2023-08-21T04:49:12;2.90;;;1.23;;
67140;SDS011;54058;52.010;5.546;2023-08-21T04:51:38;5.30;;;1.50;;
67140;SDS011;54058;52.010;5.546;2023-08-21T04:54:03;3.85;;;1.30;;
67140;SDS011;54058;52.010;5.546;2023-08-21T04:56:29;4.63;;;1.50;;
67140;SDS011;54058;52.010;5.546;2023-08-21T04:58:55;5.35;;;1.33;;
67140;SDS011;54058;52.010;5.546;2023-08-21T05:01:21;5.28;;;1.92;;
67140;SDS011;54058;52.010;5.546;2023-08-21T05:03:46;4.28;;;1.60;;
67140;SDS011;54058;52.010;5.546;2023-08-21T05:06:12;5.90;;;1.70;;
67140;SDS011;54058;52.010;5.546;2023-08-21T05:08:37;5.73;;;2.00;;
67140;SDS011;54058;52.010;5.546;2023-08-21T05:11:03;3.83;;;1.85;;
67140;SDS011;54058;52.010;5.546;2023-08-21T05:13:29;3.90;;;1.80;;
67140;SDS011;54058;52.010;5.546;2023-08-21T05:15:56;6.93;;;1.70;;
67140;SDS011;54058;52.010;5.546;2023-08-21T05:18:22;4.18;;;1.60;;
67140;SDS011;54058;52.010;5.546;2023-08-21T05:20:49;8.50;;;1.60;;
67140;SDS011;54058;52.010;5.546;2023-08-21T05:23:15;5.93;;;1.80;;
67140;SDS011;54058;52.010;5.546;2023-08-21T05:25:42;4.03;;;1.80;;
67140;SDS011;54058;52.010;5.546;2023-08-21T05:28:08;2.75;;;1.50;;
67140;SDS011;54058;52.010;5.546;2023-08-21T05:30:35;2.17;;;1.33;;
67140;SDS011;54058;52.010;5.546;2023-08-21T05:33:01;3.70;;;1.65;;
67140;SDS011;54058;52.010;5.546;2023-08-21T05:35:27;3.75;;;1.80;;
67140;SDS011;54058;52.010;5.546;2023-08-21T05:37:53;4.77;;;1.57;;
67140;SDS011;54058;52.010;5.546;2023-08-21T05:40:18;4.83;;;1.40;;
67140;SDS011;54058;52.010;5.546;2023-08-21T05:42:44;4.97;;;1.87;;
67140;SDS011;54058;52.010;5.546;2023-08-21T05:45:10;6.22;;;1.35;;
67140;SDS011;54058;52.010;5.546;2023-08-21T05:47:35;4.50;;;1.60;;
67140;SDS011;54058;52.010;5.546;2023-08-21T05:50:01;3.53;;;1.53;;
67140;SDS011;54058;52.010;5.546;2023-08-21T05:52:27;4.33;;;1.33;;
67140;SDS011;54058;52.010;5.546;2023-08-21T05:54:52;4.93;;;1.60;;
67140;SDS011;54058;52.010;5.546;2023-08-21T05:57:18;2.57;;;1.50;;
67140;SDS011;54058;52.010;5.546;2023-08-21T05:59:44;3.33;;;1.60;;
67140;SDS011;54058;52.010;5.546;2023-08-21T06:02:11;7.63;;;1.70;;
67140;SDS011;54058;52.010;5.546;2023-08-21T06:04:40;7.22;;;1.75;;
67140;SDS011;54058;52.010;5.546;2023-08-21T06:07:07;5.15;;;1.58;;
67140;SDS011;54058;52.010;5.546;2023-08-21T06:09:33;5.78;;;2.22;;
67140;SDS011;54058;52.010;5.546;2023-08-21T06:12:00;14.70;;;2.15;;
67140;SDS011;54058;52.010;5.546;2023-08-21T06:14:27;12.63;;;2.60;;
67140;SDS011;54058;52.010;5.546;2023-08-21T06:16:56;14.13;;;2.83;;
67140;SDS011;54058;52.010;5.546;2023-08-21T06:19:26;12.60;;;2.75;;
67140;SDS011;54058;52.010;5.546;2023-08-21T06:21:52;24.00;;;3.25;;
67140;SDS011;54058;52.010;5.546;2023-08-21T06:24:18;22.83;;;3.63;;
67140;SDS011;54058;52.010;5.546;2023-08-21T06:26:43;19.37;;;4.03;;
67140;SDS011;54058;52.010;5.546;2023-08-21T06:29:09;18.77;;;3.63;;
67140;SDS011;54058;52.010;5.546;2023-08-21T06:31:34;20.30;;;3.63;;
67140;SDS011;54058;52.010;5.546;2023-08-21T06:34:00;20.03;;;3.27;;
67140;SDS011;54058;52.010;5.546;2023-08-21T06:36:26;16.03;;;3.70;;
67140;SDS011;54058;52.010;5.546;2023-08-21T06:38:51;20.40;;;4.20;;
67140;SDS011;54058;52.010;5.546;2023-08-21T06:41:17;21.20;;;4.37;;
67140;SDS011;54058;52.010;5.546;2023-08-21T06:43:43;17.33;;;2.93;;
67140;SDS011;54058;52.010;5.546;2023-08-21T06:46:09;9.70;;;2.77;;
67140;SDS011;54058;52.010;5.546;2023-08-21T06:48:37;9.57;;;3.20;;
67140;SDS011;54058;52.010;5.546;2023-08-21T06:51:03;15.98;;;3.50;;
67140;SDS011;54058;52.010;5.546;2023-08-21T06:53:30;10.13;;;3.88;;
67140;SDS011;54058;52.010;5.546;2023-08-21T06:55:56;12.97;;;3.67;;
67140;SDS011;54058;52.010;5.546;2023-08-21T06:58:22;7.10;;;3.70;;
67140;SDS011;54058;52.010;5.546;2023-08-21T07:00:47;9.53;;;3.50;;
67140;SDS011;54058;52.010;5.546;2023-08-21T07:03:13;9.13;;;3.37;;
67140;SDS011;54058;52.010;5.546;2023-08-21T07:05:39;15.03;;;3.47;;
67140;SDS011;54058;52.010;5.546;2023-08-21T07:08:05;8.23;;;3.78;;
67140;SDS011;54058;52.010;5.546;2023-08-21T07:10:35;12.83;;;4.47;;
67140;SDS011;54058;52.010;5.546;2023-08-21T07:13:02;10.45;;;4.05;;
67140;SDS011;54058;52.010;5.546;2023-08-21T07:15:28;10.13;;;3.37;;
67140;SDS011;54058;52.010;5.546;2023-08-21T07:17:54;10.07;;;3.53;;
67140;SDS011;54058;52.010;5.546;2023-08-21T07:20:20;9.95;;;4.28;;
67140;SDS011;54058;52.010;5.546;2023-08-21T07:22:46;7.55;;;3.80;;
67140;SDS011;54058;52.010;5.546;2023-08-21T07:25:12;11.37;;;5.10;;
67140;SDS011;54058;52.010;5.546;2023-08-21T07:27:38;10.15;;;4.13;;
67140;SDS011;54058;52.010;5.546;2023-08-21T07:30:05;14.30;;;3.60;;
67140;SDS011;54058;52.010;5.546;2023-08-21T07:32:31;17.52;;;4.60;;
67140;SDS011;54058;52.010;5.546;2023-08-21T07:34:57;10.40;;;4.23;;
67140;SDS011;54058;52.010;5.546;2023-08-21T07:37:23;10.27;;;3.77;;
67140;SDS011;54058;52.010;5.546;2023-08-21T07:39:48;10.93;;;3.63;;
67140;SDS011;54058;52.010;5.546;2023-08-21T07:42:14;11.17;;;4.40;;
67140;SDS011;54058;52.010;5.546;2023-08-21T07:44:40;13.43;;;4.17;;
67140;SDS011;54058;52.010;5.546;2023-08-21T07:47:06;9.88;;;3.03;;
67140;SDS011;54058;52.010;5.546;2023-08-21T07:49:34;9.70;;;2.50;;
67140;SDS011;54058;52.010;5.546;2023-08-21T07:52:00;7.70;;;2.60;;
67140;SDS011;54058;52.010;5.546;2023-08-21T07:54:28;10.00;;;2.50;;
67140;SDS011;54058;52.010;5.546;2023-08-21T07:56:53;9.10;;;2.67;;
67140;SDS011;54058;52.010;5.546;2023-08-21T07:59:19;5.40;;;2.30;;
67140;SDS011;54058;52.010;5.546;2023-08-21T08:01:45;9.47;;;2.43;;
67140;SDS011;54058;52.010;5.546;2023-08-21T08:04:10;11.40;;;2.70;;
67140;SDS011;54058;52.010;5.546;2023-08-21T08:06:36;10.50;;;2.53;;
67140;SDS011;54058;52.010;5.546;2023-08-21T08:09:01;8.50;;;2.80;;
67140;SDS011;54058;52.010;5.546;2023-08-21T08:11:28;8.45;;;2.42;;
67140;SDS011;54058;52.010;5.546;2023-08-21T08:13:55;6.57;;;1.98;;
67140;SDS011;54058;52.010;5.546;2023-08-21T08:16:20;6.47;;;2.40;;
67140;SDS011;54058;52.010;5.546;2023-08-21T08:18:46;6.03;;;1.87;;
67140;SDS011;54058;52.010;5.546;2023-08-21T08:21:12;5.63;;;2.00;;
67140;SDS011;54058;52.010;5.546;2023-08-21T08:23:38;4.93;;;1.67;;
67140;SDS011;54058;52.010;5.546;2023-08-21T08:26:03;6.23;;;1.90;;
67140;SDS011;54058;52.010;5.546;2023-08-21T08:28:29;10.30;;;2.47;;
67140;SDS011;54058;52.010;5.546;2023-08-21T08:30:55;5.87;;;1.97;;
67140;SDS011;54058;52.010;5.546;2023-08-21T08:33:22;6.93;;;2.40;;
67140;SDS011;54058;52.010;5.546;2023-08-21T08:35:48;6.07;;;2.10;;
67140;SDS011;54058;52.010;5.546;2023-08-21T08:38:14;7.17;;;1.67;;
67140;SDS011;54058;52.010;5.546;2023-08-21T08:40:44;7.93;;;1.98;;
67140;SDS011;54058;52.010;5.546;2023-08-21T08:43:11;6.93;;;1.65;;
67140;SDS011;54058;52.010;5.546;2023-08-21T08:48:05;12.77;;;1.65;;
67140;SDS011;54058;52.010;5.546;2023-08-21T08:50:31;6.05;;;1.38;;
67140;SDS011;54058;52.010;5.546;2023-08-21T08:52:58;9.45;;;2.10;;
67140;SDS011;54058;52.010;5.546;2023-08-21T08:55:25;11.27;;;2.17;;
67140;SDS011;54058;52.010;5.546;2023-08-21T08:57:53;6.65;;;1.70;;
67140;SDS011;54058;52.010;5.546;2023-08-21T09:00:19;7.75;;;1.40;;
67140;SDS011;54058;52.010;5.546;2023-08-21T09:07:37;4.50;;;1.38;;
67140;SDS011;54058;52.010;5.546;2023-08-21T09:10:03;6.68;;;1.65;;
67140;SDS011;54058;52.010;5.546;2023-08-21T09:12:37;9.40;;;1.60;;
67140;SDS011;54058;52.010;5.546;2023-08-21T09:15:07;4.47;;;1.42;;
67140;SDS011;54058;52.010;5.546;2023-08-21T09:17:33;6.80;;;1.38;;
67140;SDS011;54058;52.010;5.546;2023-08-21T09:20:06;12.07;;;1.85;;
67140;SDS011;54058;52.010;5.546;2023-08-21T09:22:35;7.72;;;1.50;;
67140;SDS011;54058;52.010;5.546;2023-08-21T09:27:35;6.82;;;1.80;;
67140;SDS011;54058;52.010;5.546;2023-08-21T09:30:09;5.28;;;1.55;;
67140;SDS011;54058;52.010;5.546;2023-08-21T09:32:58;3.97;;;1.25;;
67140;SDS011;54058;52.010;5.546;2023-08-21T09:35:31;6.07;;;1.55;;
67140;SDS011;54058;52.010;5.546;2023-08-21T09:37:58;5.13;;;1.52;;
67140;SDS011;54058;52.010;5.546;2023-08-21T09:40:24;8.38;;;1.40;;
67140;SDS011;54058;52.010;5.546;2023-08-21T09:42:54;6.22;;;1.48;;
67140;SDS011;54058;52.010;5.546;2023-08-21T09:45:25;7.45;;;1.40;;
67140;SDS011;54058;52.010;5.546;2023-08-21T09:47:52;5.32;;;1.70;;
67140;SDS011;54058;52.010;5.546;2023-08-21T09:50:18;4.88;;;1.38;;
67140;SDS011;54058;52.010;5.546;2023-08-21T09:52:45;9.65;;;2.22;;
67140;SDS011;54058;52.010;5.546;2023-08-21T09:55:11;4.90;;;1.70;;
67140;SDS011;54058;52.010;5.546;2023-08-21T09:57:39;9.35;;;2.17;;
67140;SDS011;54058;52.010;5.546;2023-08-21T10:00:06;3.60;;;1.48;;
67140;SDS011;54058;52.010;5.546;2023-08-21T10:02:46;5.03;;;1.35;;
67140;SDS011;54058;52.010;5.546;2023-08-21T10:05:16;3.05;;;1.45;;
67140;SDS011;54058;52.010;5.546;2023-08-21T10:07:44;5.55;;;1.60;;
67140;SDS011;54058;52.010;5.546;2023-08-21T10:10:12;4.70;;;1.45;;
67140;SDS011;54058;52.010;5.546;2023-08-21T10:12:38;4.88;;;1.88;;
67140;SDS011;54058;52.010;5.546;2023-08-21T10:15:05;4.05;;;1.10;;
67140;SDS011;54058;52.010;5.546;2023-08-21T10:17:36;5.85;;;1.52;;
67140;SDS011;54058;52.010;5.546;2023-08-21T10:20:03;4.72;;;1.30;;
67140;SDS011;54058;52.010;5.546;2023-08-21T10:22:37;4.15;;;1.55;;
67140;SDS011;54058;52.010;5.546;2023-08-21T10:25:18;3.78;;;1.48;;
67140;SDS011;54058;52.010;5.546;2023-08-21T10:27:52;4.80;;;1.30;;
67140;SDS011;54058;52.010;5.546;2023-08-21T10:30:24;3.15;;;1.13;;
67140;SDS011;54058;52.010;5.546;2023-08-21T10:32:54;5.13;;;1.45;;
67140;SDS011;54058;52.010;5.546;2023-08-21T10:35:22;4.88;;;1.20;;
67140;SDS011;54058;52.010;5.546;2023-08-21T10:40:36;6.40;;;1.40;;
67140;SDS011;54058;52.010;5.546;2023-08-21T10:43:02;5.07;;;1.10;;
67140;SDS011;54058;52.010;5.546;2023-08-21T10:45:28;4.25;;;1.17;;
67140;SDS011;54058;52.010;5.546;2023-08-21T10:47:58;2.15;;;0.80;;
67140;SDS011;54058;52.010;5.546;2023-08-21T10:50:24;2.33;;;0.98;;
67140;SDS011;54058;52.010;5.546;2023-08-21T10:52:52;4.47;;;1.20;;
67140;SDS011;54058;52.010;5.546;2023-08-21T10:55:18;5.18;;;1.25;;
67140;SDS011;54058;52.010;5.546;2023-08-21T10:57:48;7.50;;;1.23;;
67140;SDS011;54058;52.010;5.546;2023-08-21T11:00:15;3.03;;;0.80;;
67140;SDS011;54058;52.010;5.546;2023-08-21T11:02:43;3.42;;;1.05;;
67140;SDS011;54058;52.010;5.546;2023-08-21T11:05:11;2.15;;;0.60;;
67140;SDS011;54058;52.010;5.546;2023-08-21T11:07:38;2.97;;;0.73;;
67140;SDS011;54058;52.010;5.546;2023-08-21T11:10:12;4.45;;;0.90;;
67140;SDS011;54058;52.010;5.546;2023-08-21T11:12:49;5.30;;;1.33;;
67140;SDS011;54058;52.010;5.546;2023-08-21T11:15:20;2.92;;;1.10;;
67140;SDS011;54058;52.010;5.546;2023-08-21T11:20:18;4.85;;;1.20;;
67140;SDS011;54058;52.010;5.546;2023-08-21T11:22:44;2.15;;;0.77;;
67140;SDS011;54058;52.010;5.546;2023-08-21T11:25:09;3.53;;;1.33;;
67140;SDS011;54058;52.010;5.546;2023-08-21T11:27:36;2.17;;;0.93;;
67140;SDS011;54058;52.010;5.546;2023-08-21T11:30:02;3.22;;;0.82;;
67140;SDS011;54058;52.010;5.546;2023-08-21T11:32:30;2.25;;;0.73;;
67140;SDS011;54058;52.010;5.546;2023-08-21T11:34:56;3.83;;;0.70;;
67140;SDS011;54058;52.010;5.546;2023-08-21T11:37:25;5.30;;;1.38;;
67140;SDS011;54058;52.010;5.546;2023-08-21T11:39:53;6.72;;;0.93;;
67140;SDS011;54058;52.010;5.546;2023-08-21T11:42:21;1.70;;;0.93;;
67140;SDS011;54058;52.010;5.546;2023-08-21T11:44:56;6.30;;;0.90;;
67140;SDS011;54058;52.010;5.546;2023-08-21T11:47:23;3.58;;;0.70;;
67140;SDS011;54058;52.010;5.546;2023-08-21T11:50:05;4.63;;;1.30;;
67140;SDS011;54058;52.010;5.546;2023-08-21T11:52:32;4.38;;;1.02;;
67140;SDS011;54058;52.010;5.546;2023-08-21T11:55:06;3.88;;;0.98;;
67140;SDS011;54058;52.010;5.546;2023-08-21T11:57:33;3.33;;;1.00;;
67140;SDS011;54058;52.010;5.546;2023-08-21T11:59:59;4.50;;;1.00;;
67140;SDS011;54058;52.010;5.546;2023-08-21T12:02:26;3.47;;;1.40;;
67140;SDS011;54058;52.010;5.546;2023-08-21T12:04:53;1.70;;;0.75;;
67140;SDS011;54058;52.010;5.546;2023-08-21T12:07:19;4.35;;;1.10;;
67140;SDS011;54058;52.010;5.546;2023-08-21T12:09:48;3.45;;;1.00;;
67140;SDS011;54058;52.010;5.546;2023-08-21T12:12:14;1.98;;;0.93;;
67140;SDS011;54058;52.010;5.546;2023-08-21T12:14:40;4.65;;;1.17;;
67140;SDS011;54058;52.010;5.546;2023-08-21T12:17:05;4.05;;;0.90;;
67140;SDS011;54058;52.010;5.546;2023-08-21T12:19:32;4.40;;;1.05;;
67140;SDS011;54058;52.010;5.546;2023-08-21T12:21:58;3.45;;;1.00;;
67140;SDS011;54058;52.010;5.546;2023-08-21T12:24:23;3.37;;;0.73;;
67140;SDS011;54058;52.010;5.546;2023-08-21T12:26:49;12.07;;;1.27;;
67140;SDS011;54058;52.010;5.546;2023-08-21T12:29:15;4.33;;;1.00;;
67140;SDS011;54058;52.010;5.546;2023-08-21T12:31:40;3.88;;;1.00;;
67140;SDS011;54058;52.010;5.546;2023-08-21T12:34:06;2.88;;;1.05;;
67140;SDS011;54058;52.010;5.546;2023-08-21T12:36:34;7.05;;;1.83;;
67140;SDS011;54058;52.010;5.546;2023-08-21T12:39:01;5.95;;;1.30;;
67140;SDS011;54058;52.010;5.546;2023-08-21T12:41:28;5.95;;;1.27;;
67140;SDS011;54058;52.010;5.546;2023-08-21T12:43:54;3.85;;;1.15;;
67140;SDS011;54058;52.010;5.546;2023-08-21T12:46:20;2.87;;;0.97;;
67140;SDS011;54058;52.010;5.546;2023-08-21T12:48:46;3.67;;;0.90;;
67140;SDS011;54058;52.010;5.546;2023-08-21T12:51:11;5.03;;;1.17;;
67140;SDS011;54058;52.010;5.546;2023-08-21T12:53:37;3.10;;;1.00;;
67140;SDS011;54058;52.010;5.546;2023-08-21T12:56:03;3.35;;;1.10;;
67140;SDS011;54058;52.010;5.546;2023-08-21T12:58:29;5.35;;;1.10;;
67140;SDS011;54058;52.010;5.546;2023-08-21T13:05:46;1.77;;;0.90;;
67140;SDS011;54058;52.010;5.546;2023-08-21T13:08:12;3.42;;;1.10;;
67140;SDS011;54058;52.010;5.546;2023-08-21T13:10:38;9.25;;;1.13;;
67140;SDS011;54058;52.010;5.546;2023-08-21T13:13:04;5.25;;;1.10;;
67140;SDS011;54058;52.010;5.546;2023-08-21T13:15:30;4.57;;;1.23;;
67140;SDS011;54058;52.010;5.546;2023-08-21T13:17:56;3.35;;;0.80;;
67140;SDS011;54058;52.010;5.546;2023-08-21T13:20:22;2.50;;;0.60;;
67140;SDS011;54058;52.010;5.546;2023-08-21T13:22:49;2.47;;;0.77;;
67140;SDS011;54058;52.010;5.546;2023-08-21T13:25:21;3.00;;;0.90;;
67140;SDS011;54058;52.010;5.546;2023-08-21T13:27:49;2.45;;;0.55;;
67140;SDS011;54058;52.010;5.546;2023-08-21T13:35:07;1.83;;;0.52;;
67140;SDS011;54058;52.010;5.546;2023-08-21T13:37:36;2.35;;;0.80;;
67140;SDS011;54058;52.010;5.546;2023-08-21T13:40:03;3.55;;;1.10;;
67140;SDS011;54058;52.010;5.546;2023-08-21T13:42:38;2.88;;;0.65;;
67140;SDS011;54058;52.010;5.546;2023-08-21T13:45:14;2.83;;;0.65;;
67140;SDS011;54058;52.010;5.546;2023-08-21T13:47:43;5.03;;;0.60;;
67140;SDS011;54058;52.010;5.546;2023-08-21T13:50:12;2.03;;;0.63;;
67140;SDS011;54058;52.010;5.546;2023-08-21T13:52:39;1.13;;;0.60;;
67140;SDS011;54058;52.010;5.546;2023-08-21T13:55:06;1.63;;;0.60;;
67140;SDS011;54058;52.010;5.546;2023-08-21T13:57:32;3.70;;;0.60;;
67140;SDS011;54058;52.010;5.546;2023-08-21T13:59:58;1.77;;;0.70;;
67140;SDS011;54058;52.010;5.546;2023-08-21T14:02:25;3.50;;;0.70;;
67140;SDS011;54058;52.010;5.546;2023-08-21T14:04:51;1.85;;;0.70;;
67140;SDS011;54058;52.010;5.546;2023-08-21T14:07:16;2.25;;;0.70;;
67140;SDS011;54058;52.010;5.546;2023-08-21T14:09:42;0.63;;;0.50;;
67140;SDS011;54058;52.010;5.546;2023-08-21T14:12:08;2.53;;;1.05;;
67140;SDS011;54058;52.010;5.546;2023-08-21T14:14:34;2.05;;;0.60;;
67140;SDS011;54058;52.010;5.546;2023-08-21T14:21:51;2.53;;;0.80;;
67140;SDS011;54058;52.010;5.546;2023-08-21T14:24:17;2.13;;;0.83;;
67140;SDS011;54058;52.010;5.546;2023-08-21T14:26:43;17.33;;;1.27;;
67140;SDS011;54058;52.010;5.546;2023-08-21T14:29:09;1.75;;;0.70;;
67140;SDS011;54058;52.010;5.546;2023-08-21T14:31:34;2.80;;;0.87;;
67140;SDS011;54058;52.010;5.546;2023-08-21T14:34:00;2.40;;;0.80;;
67140;SDS011;54058;52.010;5.546;2023-08-21T14:36:26;1.90;;;0.70;;
67140;SDS011;54058;52.010;5.546;2023-08-21T14:38:51;1.07;;;0.50;;
67140;SDS011;54058;52.010;5.546;2023-08-21T14:41:17;5.57;;;0.80;;
67140;SDS011;54058;52.010;5.546;2023-08-21T14:43:43;4.35;;;0.90;;
67140;SDS011;54058;52.010;5.546;2023-08-21T14:46:09;4.20;;;0.60;;
67140;SDS011;54058;52.010;5.546;2023-08-21T14:48:35;3.72;;;0.60;;
67140;SDS011;54058;52.010;5.546;2023-08-21T14:51:01;2.80;;;0.85;;
67140;SDS011;54058;52.010;5.546;2023-08-21T14:53:27;6.95;;;1.00;;
67140;SDS011;54058;52.010;5.546;2023-08-21T14:55:53;2.10;;;0.70;;
67140;SDS011;54058;52.010;5.546;2023-08-21T14:58:18;2.35;;;0.63;;
67140;SDS011;54058;52.010;5.546;2023-08-21T15:00:44;6.10;;;0.90;;
67140;SDS011;54058;52.010;5.546;2023-08-21T15:03:09;1.88;;;0.68;;
67140;SDS011;54058;52.010;5.546;2023-08-21T15:05:35;3.87;;;1.10;;
67140;SDS011;54058;52.010;5.546;2023-08-21T15:08:01;3.47;;;0.88;;
67140;SDS011;54058;52.010;5.546;2023-08-21T15:10:27;7.60;;;0.70;;
67140;SDS011;54058;52.010;5.546;2023-08-21T15:12:53;2.05;;;0.82;;